Date,TemperatureHighF,TemperatureAvgF,TemperatureLowF,DewpointHighF,DewpointAvgF,DewpointLowF,HumidityHigh,HumidityAvg,HumidityLow,PressureMaxIn,PressureMinIn,WindSpeedMaxMPH,WindSpeedAvgMPH,GustSpeedMaxMPH,PrecipitationSumIn
2013-5-1,81.6,72.5,67.7,73.3,69.2,65.2,98,90,73,29.88,29.79,16,2,16,0.00
2013-5-2,76.0,69.7,66.5,70.9,67.8,65.3,98,94,81,29.92,29.82,20,3,20,0.58
2013-5-3,71.5,62.5,52.0,69.0,59.4,44.7,98,90,75,30.02,29.86,20,3,20,0.01
2013-5-4,71.0,59.7,47.3,51.8,46.7,40.1,87,64,39,30.02,29.88,15,2,16,0.00
2013-5-5,65.8,61.6,58.0,56.6,49.3,43.9,89,65,49,30.04,29.86,17,3,17,0.00
2013-5-6,76.3,64.8,52.2,56.9,50.6,44.6,83,62,43,30.05,29.92,13,1,13,0.00
2013-5-7,81.0,70.3,58.4,64.5,60.0,56.3,94,72,48,30.05,29.97,10,1,11,0.00
2013-5-8,84.6,72.7,60.9,66.2,62.9,59.8,98,73,46,30.11,30.01,11,1,12,0.00
2013-5-9,85.7,75.1,64.3,70.2,67.4,63.4,99,79,52,30.11,30.02,13,1,13,0.00
2013-5-10,72.9,68.2,63.9,71.2,67.0,63.4,99,96,88,30.08,29.87,18,1,18,2.39
2013-5-11,75.1,69.4,63.4,70.0,67.3,63.1,100,93,83,30.07,29.92,10,1,10,1.09
2013-5-12,78.8,71.8,67.0,68.0,62.4,55.4,99,73,54,30.13,30.02,13,2,14,0.00
2013-5-13,78.7,69.1,60.5,56.4,52.0,47.5,72,56,36,30.29,30.12,14,2,15,0.00
2013-5-14,85.3,72.6,57.7,64.3,59.0,53.2,93,65,37,30.27,30.15,11,1,11,0.00
2013-5-15,84.9,73.4,61.6,67.6,62.8,55.2,97,72,39,30.19,30.02,12,1,12,0.00
2013-5-16,86.8,76.8,66.6,72.3,68.4,65.0,98,77,53,30.03,29.91,12,2,14,0.00
2013-5-17,87.2,79.6,73.2,74.5,72.7,71.2,94,81,62,30.02,29.93,14,2,14,0.00
2013-5-18,88.2,80.8,74.2,75.4,73.3,71.7,96,79,61,30.06,29.97,12,1,12,0.00
2013-5-19,86.5,79.5,74.0,76.4,74.2,72.3,97,85,67,30.01,29.93,12,1,12,0.00
2013-5-20,91.8,81.6,74.9,78.0,75.1,73.4,97,82,57,29.99,29.91,12,1,15,0.04
2013-5-21,91.5,81.2,73.3,76.0,73.7,72.1,99,79,56,29.95,29.82,11,1,11,0.00
2013-5-22,79.5,74.1,68.4,74.5,71.5,67.0,97,92,79,30.01,29.86,19,1,19,0.45
2013-5-23,89.3,79.3,69.6,77.4,73.7,69.3,100,84,65,30.03,29.93,10,1,11,0.00
2013-5-24,89.0,80.8,71.3,77.1,72.0,67.4,95,75,62,30.12,30.01,11,2,13,0.00
2013-5-25,84.3,77.9,71.0,72.0,66.9,62.2,89,69,60,30.20,30.10,15,3,15,0.00
2013-5-26,85.3,77.3,68.7,71.8,66.8,63.2,93,72,49,30.17,30.09,10,1,12,0.00
2013-5-27,88.2,78.3,68.1,75.9,70.6,65.8,99,78,62,30.11,30.02,12,1,13,0.00
2013-5-28,87.5,79.0,68.3,74.1,68.8,60.9,94,73,43,30.06,29.98,15,1,15,0.05
2013-5-29,87.8,79.7,74.3,76.7,74.7,70.9,94,85,67,30.00,29.92,15,2,15,0.04
2013-5-30,89.0,81.1,76.4,77.8,75.2,72.9,91,83,66,29.99,29.92,18,2,18,0.03
2013-5-31,90.7,81.6,76.4,80.7,76.6,74.4,96,86,65,29.99,29.93,11,1,12,0.64